Old Snowmass, Colorado
Current Conditions -  °F | °C
As of 10:53 PM on Wednesday 22 Oct 2014 (Local Time) from KASE Reporting Station
Clear Clear  
Wind Chill: 30°   Ceiling: Unl
Heat Index: 34°   Visibility: 10mi
Dew Point: 32°   Wind: 5mph
Humidity: 92%   Direction: 220°SW
Pressure: 30.32"   Gusts: NA
Location:  39.258°N, 106.999°W
Report Text: KASE 230453Z 22004KT 10SM CLR 01/00 A3032 RMK AO2 SLP215 T00110000
Loading
Personal Weather Stations






























Interactive Weather Map
Tropical Storm Tracking
New forecast layout! Learn more

10-Day Weather Forecast

Advertisements
Track Severe Weather on mobile